Palestine, Texas
Current Conditions -  °F | °C
As of 1:50 AM on Tuesday 21 Oct 2014 (Local Time) from KPSN Reporting Station
Clear Clear  
Wind Chill: 58°   Ceiling: Unl
Heat Index: 58°   Visibility: 10mi
Dew Point: 57°   Wind: 0mph
Humidity: 96%   Direction: NA
Pressure: 30.05"   Gusts: NA
Location:  31.76°N, 95.63°W
Report Text: KPSN 210650Z AUTO 00000KT 10SM CLR 14/13 A3005 RMK AO2 T01450138
Loading
Personal Weather Stations






























Interactive Weather Map
Tropical Storm Tracking
New forecast layout! Learn more

10-Day Weather Forecast

Advertisements
Track Severe Weather on mobile